»·PEaware :: WAT234 KSAN-KSBA

WAT234 :: KSAN-KSBA

FLIGHT INFORMATION

Flight Status: Arrived
Operator:
Walker Air Transport
More flights by this operator :: More flights under this callsign
Pilot: Eduardo Elias G. (24838)
Aircraft: SOCATA TBM-900
(TBM9)
More flights by this aircraft type
Origin: KSAN San Diego Intl-Lindbergh
United States
Destination: KSBA Santa Barbara Mun
United States
More flights between these airports :: More routes between these airports
Route: CWARD2 CWARD AVOLS V208 VTU VTU282 KWANG
File this flight plan on PilotEdge
Remarks: Tec route SANP36R
Altitude:
(Current/Filed)
8,000ft
Speed:
(Current/Filed)
220kts
Departed: 29-Aug-20 05:21 PM
Arrived: 29-Aug-20 06:07 PM
Distance/Time
Traveled:
167nm/0:46
Distance/Time
To Go:
Arrived

Flight Plot

Page will automatically refresh every two minutes.

Flight plan parsing failed; only flown route is shown


Map Options




Map Legend


Flown Route
Filed Route
Departure Airport
Arrival Airport
Navaid (VOR, NDB)
Fix

Horizontal Profiles

Position Reports

Time Latitude Longitude Heading Altitude Ground
Speed
29-Aug-20 17:05 32.733408 -117.178490 17 20ft 0kts
29-Aug-20 17:06 32.733408 -117.178490 17 20ft 0kts
29-Aug-20 17:07 32.733408 -117.178490 17 20ft 0kts
29-Aug-20 17:08 32.733408 -117.178490 17 20ft 0kts
29-Aug-20 17:09 32.733409 -117.178490 17 20ft 0kts
29-Aug-20 17:10 32.733409 -117.178490 17 20ft 0kts
29-Aug-20 17:11 32.733409 -117.178490 17 20ft 0kts
29-Aug-20 17:12 32.733409 -117.178490 17 20ft 0kts
29-Aug-20 17:13 32.733685 -117.178717 273 20ft 5kts
29-Aug-20 17:14 32.733701 -117.179134 271 20ft 0kts
29-Aug-20 17:15 32.733698 -117.179281 257 20ft 2kts
29-Aug-20 17:16 32.733454 -117.179547 200 20ft 7kts
29-Aug-20 17:17 32.732215 -117.176803 152 20ft 0kts
29-Aug-20 17:18 32.731799 -117.176554 153 20ft 13kts
29-Aug-20 17:19 32.730583 -117.175300 164 20ft 10kts
29-Aug-20 17:20 32.732012 -117.183287 284 81ft 108kts
29-Aug-20 17:21 32.751061 -117.224945 299 1945ft 151kts
29-Aug-20 17:22 32.772112 -117.265629 298 4264ft 149kts
29-Aug-20 17:23 32.797057 -117.314092 299 5870ft 180kts
29-Aug-20 17:24 32.829412 -117.364627 304 7909ft 187kts
29-Aug-20 17:25 32.869003 -117.426071 304 8009ft 244kts
29-Aug-20 17:26 32.915079 -117.497671 305 7996ft 259kts
29-Aug-20 17:27 32.962092 -117.570891 305 7993ft 264kts
29-Aug-20 17:28 33.007411 -117.641597 305 7991ft 265kts
29-Aug-20 17:29 33.052266 -117.711720 304 7992ft 266kts
29-Aug-20 17:30 33.106698 -117.773208 317 7991ft 268kts
29-Aug-20 17:31 33.165128 -117.832639 317 7991ft 268kts
29-Aug-20 17:32 33.231954 -117.871613 347 8003ft 271kts
29-Aug-20 17:33 33.305921 -117.889819 347 8006ft 271kts
29-Aug-20 17:34 33.377262 -117.922812 292 7993ft 266kts
29-Aug-20 17:35 33.374132 -118.011466 261 8009ft 263kts
29-Aug-20 17:36 33.365463 -118.101863 261 8017ft 264kts
29-Aug-20 17:37 33.356899 -118.189777 261 8025ft 264kts
29-Aug-20 17:38 33.356466 -118.278076 277 8007ft 266kts
29-Aug-20 17:39 33.368463 -118.369252 277 8009ft 266kts
29-Aug-20 17:40 33.398095 -118.452742 309 8012ft 268kts
29-Aug-20 17:41 33.448256 -118.524044 309 8008ft 269kts
29-Aug-20 17:42 33.498030 -118.595017 309 8009ft 269kts
29-Aug-20 17:43 33.546830 -118.664736 308 8009ft 270kts
29-Aug-20 17:44 33.596939 -118.736473 308 8009ft 270kts
29-Aug-20 17:45 33.646373 -118.807381 308 8002ft 269kts
29-Aug-20 17:46 33.695199 -118.877545 308 7991ft 269kts
29-Aug-20 17:47 33.745232 -118.949590 308 7981ft 269kts
29-Aug-20 17:48 33.796780 -119.014927 342 7968ft 271kts
29-Aug-20 17:49 33.872621 -119.024068 355 8000ft 269kts
29-Aug-20 17:50 33.948170 -119.031976 355 8000ft 269kts
29-Aug-20 17:51 34.023494 -119.039898 355 8000ft 269kts
29-Aug-20 17:52 34.085074 -119.078981 294 8008ft 268kts
29-Aug-20 17:53 34.123256 -119.158403 301 7999ft 269kts
29-Aug-20 17:55 34.163639 -119.235566 302 7203ft 273kts
29-Aug-20 17:56 34.204363 -119.313356 302 5997ft 268kts
29-Aug-20 17:57 34.243369 -119.387987 302 5991ft 240kts
29-Aug-20 17:58 34.277425 -119.453266 301 5109ft 230kts
29-Aug-20 17:59 34.310141 -119.516978 293 3995ft 209kts
29-Aug-20 18:00 34.339177 -119.570889 303 3993ft 177kts
29-Aug-20 18:01 34.366831 -119.620316 306 3924ft 172kts
29-Aug-20 18:02 34.399556 -119.663912 311 3039ft 168kts
29-Aug-20 18:03 34.422374 -119.711564 282 2101ft 127kts
29-Aug-20 18:04 34.426992 -119.756250 271 1143ft 122kts
29-Aug-20 18:05 34.428582 -119.799227 270 715ft 93kts
29-Aug-20 18:06 34.427916 -119.833000 268 72ft 90kts
29-Aug-20 18:07 34.428248 -119.846277 22 13ft 4kts
29-Aug-20 18:08 34.428507 -119.845787 75 13ft 0kts
29-Aug-20 18:09 34.430368 -119.840680 60 13ft 20kts
29-Aug-20 18:10 34.432315 -119.835143 3 13ft 8kts
29-Aug-20 18:10 34.432604 -119.835549 250 13ft 0kts
29-Aug-20 18:12 34.432604 -119.835549 250 13ft 0kts
29-Aug-20 18:12 34.432604 -119.835549 250 13ft 0kts
29-Aug-20 18:13 34.432604 -119.835549 250 13ft 0kts
29-Aug-20 18:15 34.432604 -119.835549 250 13ft 0kts
29-Aug-20 18:15 34.432604 -119.835549 250 13ft 0kts
29-Aug-20 18:16 34.432604 -119.835549 250 13ft 0kts
29-Aug-20 18:18 34.432604 -119.835549 250 13ft 0kts
29-Aug-20 18:18 34.432604 -119.835549 250 13ft 0kts
29-Aug-20 18:19 34.432604 -119.835549 250 13ft 0kts

Navigation Log

Ident Type
Flight plan parsing failed, navigation log unavailable